Time;durP1;ratioP1;P1;durP2;ratioP2;P2;SDS_P1;SDS_P2;PMS_P1;PMS_P2;Temp;Humidity;BMP_temperature;BMP_pressure;BME280_temperature;BME280_humidity;BME280_pressure;Samples;Min_cycle;Max_cycle;Signal;HPM_P1;HPM_P2
2024/03/12 00:01:34;;;;;;;11.57;5.83;;;5.20;99.90;;;;;;5041852;28;20460;-66
2024/03/12 00:04:02;;;;;;;12.63;5.97;;;5.10;99.90;;;;;;5047921;28;20454;-66
2024/03/12 00:06:30;;;;;;;14.97;6.00;;;5.10;99.90;;;;;;5047579;28;20508;-65
2024/03/12 00:08:59;;;;;;;12.60;6.07;;;5.20;99.90;;;;;;5048194;28;20455;-66
2024/03/12 00:11:26;;;;;;;12.27;6.27;;;5.20;99.90;;;;;;5046762;28;20475;-66
2024/03/12 00:13:54;;;;;;;10.60;4.90;;;5.20;99.90;;;;;;5047499;28;20470;-66
2024/03/12 00:16:24;;;;;;;15.90;5.83;;;5.20;99.90;;;;;;5047566;28;20451;-66
2024/03/12 00:18:53;;;;;;;11.90;5.23;;;5.20;99.90;;;;;;5045912;28;20509;-66
2024/03/12 00:21:21;;;;;;;12.67;5.77;;;5.10;99.90;;;;;;5047720;28;20562;-66
2024/03/12 00:23:49;;;;;;;13.90;5.80;;;5.10;99.90;;;;;;5047361;28;20448;-66
2024/03/12 00:26:17;;;;;;;12.40;5.80;;;5.00;99.90;;;;;;5047178;28;20489;-66
2024/03/12 00:28:46;;;;;;;11.87;5.43;;;5.10;99.90;;;;;;5047364;28;21072;-65
2024/03/12 00:31:14;;;;;;;13.53;5.80;;;5.10;99.90;;;;;;5040826;28;20991;-67
2024/03/12 00:33:46;;;;;;;11.90;5.47;;;5.10;99.90;;;;;;5047537;28;20455;-66
2024/03/12 00:36:15;;;;;;;12.27;5.50;;;5.00;99.90;;;;;;5054211;28;20447;-67
2024/03/12 00:38:43;;;;;;;15.93;5.20;;;4.80;99.90;;;;;;5046882;28;20444;-65
2024/03/12 00:41:11;;;;;;;13.70;5.90;;;4.80;99.90;;;;;;5045897;28;20498;-67
2024/03/12 00:43:39;;;;;;;11.00;5.20;;;4.70;99.90;;;;;;5043653;28;20519;-67
2024/03/12 00:46:10;;;;;;;12.37;5.40;;;4.60;99.90;;;;;;5037980;28;20580;-67
2024/03/12 00:48:38;;;;;;;12.70;5.30;;;4.50;99.90;;;;;;5043843;28;21137;-67
2024/03/12 00:51:08;;;;;;;10.63;5.10;;;4.40;99.90;;;;;;5047123;28;20553;-67
2024/03/12 00:53:36;;;;;;;12.13;5.73;;;4.30;99.90;;;;;;5044539;28;20486;-67
2024/03/12 00:56:05;;;;;;;11.70;5.27;;;4.30;99.90;;;;;;5046451;28;20500;-68
2024/03/12 00:58:33;;;;;;;15.50;5.90;;;4.30;99.90;;;;;;5045330;28;20496;-67
2024/03/12 01:01:03;;;;;;;12.87;5.60;;;4.30;99.90;;;;;;5047644;28;20560;-67
2024/03/12 01:03:31;;;;;;;10.70;5.40;;;4.20;99.90;;;;;;5044265;28;21220;-67
2024/03/12 01:05:59;;;;;;;17.80;5.83;;;4.10;99.90;;;;;;5045766;28;20486;-67
2024/03/12 01:08:28;;;;;;;12.03;5.10;;;4.00;99.90;;;;;;5045722;28;20476;-67
2024/03/12 01:10:58;;;;;;;11.47;5.40;;;4.00;99.90;;;;;;5045815;28;21194;-67
2024/03/12 01:13:27;;;;;;;15.07;5.73;;;4.10;99.90;;;;;;5047910;28;20453;-65
2024/03/12 01:15:55;;;;;;;11.50;5.73;;;4.10;99.90;;;;;;5050088;28;20822;-67
2024/03/12 01:18:24;;;;;;;11.87;4.93;;;4.00;99.90;;;;;;5049538;28;20577;-67
2024/03/12 01:20:52;;;;;;;12.00;5.33;;;3.90;99.90;;;;;;5054488;28;21068;-66
2024/03/12 01:23:20;;;;;;;11.27;5.93;;;3.80;99.90;;;;;;5048338;28;20493;-67
2024/03/12 01:25:49;;;;;;;12.53;4.90;;;3.70;99.90;;;;;;5049272;28;20484;-67
2024/03/12 01:28:17;;;;;;;10.70;4.70;;;3.80;99.90;;;;;;5049011;28;21074;-68
2024/03/12 01:30:45;;;;;;;12.97;6.33;;;3.70;99.90;;;;;;5048856;28;20987;-67
2024/03/12 01:33:13;;;;;;;12.77;5.13;;;3.70;99.90;;;;;;5050247;28;20822;-68
2024/03/12 01:35:41;;;;;;;11.43;5.10;;;3.70;99.90;;;;;;5056389;28;20539;-67
2024/03/12 01:38:09;;;;;;;15.13;5.23;;;3.70;99.90;;;;;;5048392;28;20462;-67
2024/03/12 01:40:41;;;;;;;11.60;5.30;;;3.70;99.90;;;;;;5049332;28;20570;-67
2024/03/12 01:43:12;;;;;;;10.80;5.00;;;3.70;99.90;;;;;;5049084;28;20450;-67
2024/03/12 01:45:42;;;;;;;12.20;4.43;;;3.70;99.90;;;;;;5049541;28;20484;-67
2024/03/12 01:48:10;;;;;;;14.43;4.80;;;3.60;99.90;;;;;;5043740;28;20494;-67
2024/03/12 01:50:40;;;;;;;12.10;4.43;;;3.60;99.90;;;;;;5051939;28;20497;-67
2024/03/12 01:53:09;;;;;;;9.00;3.60;;;3.60;99.90;;;;;;5052771;28;20445;-67
2024/03/12 01:55:41;;;;;;;10.60;4.23;;;3.50;99.90;;;;;;5050427;28;20445;-67
2024/03/12 01:58:14;;;;;;;9.60;4.03;;;3.50;99.90;;;;;;5048023;28;20456;-67
2024/03/12 02:00:43;;;;;;;11.07;4.07;;;3.50;99.90;;;;;;5050013;28;20460;-67
2024/03/12 02:03:12;;;;;;;10.03;4.03;;;3.50;99.90;;;;;;5048495;28;21149;-68
2024/03/12 02:05:40;;;;;;;8.97;3.60;;;3.60;99.90;;;;;;5049980;28;20448;-66
2024/03/12 02:08:09;;;;;;;9.87;3.63;;;3.60;99.90;;;;;;5052103;28;20460;-66
2024/03/12 02:10:37;;;;;;;8.30;3.30;;;3.70;99.90;;;;;;5048658;28;20482;-67
2024/03/12 02:13:05;;;;;;;11.13;4.03;;;3.60;99.90;;;;;;5049670;28;20464;-66
2024/03/12 02:15:35;;;;;;;9.73;4.03;;;3.60;99.90;;;;;;5048810;28;20917;-66
2024/03/12 02:18:04;;;;;;;9.40;3.37;;;3.60;99.90;;;;;;5049962;28;20502;-66
2024/03/12 02:20:31;;;;;;;10.30;3.90;;;3.50;99.90;;;;;;5054549;28;20506;-66
2024/03/12 02:22:59;;;;;;;8.43;3.27;;;3.40;99.90;;;;;;5049714;28;20450;-66
2024/03/12 02:25:29;;;;;;;10.73;3.97;;;3.50;99.90;;;;;;5048278;28;20526;-67
2024/03/12 02:27:57;;;;;;;8.93;3.53;;;3.50;99.90;;;;;;5049337;28;20476;-66
2024/03/12 02:30:25;;;;;;;10.87;3.67;;;3.50;99.90;;;;;;5049141;28;20473;-67
2024/03/12 02:32:53;;;;;;;8.50;3.33;;;3.50;99.90;;;;;;5049639;28;20536;-67
2024/03/12 02:35:21;;;;;;;9.87;4.00;;;3.70;99.90;;;;;;5055327;28;20458;-67
2024/03/12 02:37:49;;;;;;;13.90;3.90;;;3.80;99.90;;;;;;5049717;28;20469;-66
2024/03/12 02:40:18;;;;;;;10.27;4.07;;;3.80;99.90;;;;;;5049356;28;20562;-67
2024/03/12 02:42:47;;;;;;;10.10;3.70;;;4.00;99.90;;;;;;5041641;28;20966;-66
2024/03/12 02:45:16;;;;;;;8.80;3.30;;;4.10;99.90;;;;;;5049310;28;20469;-66
2024/03/12 02:47:45;;;;;;;9.03;3.30;;;4.20;99.90;;;;;;5048811;28;20480;-66
2024/03/12 02:50:15;;;;;;;8.87;3.03;;;4.20;99.90;;;;;;5049020;28;20472;-66
2024/03/12 02:52:44;;;;;;;8.17;2.73;;;4.30;99.90;;;;;;5044032;28;20495;-66
2024/03/12 02:55:13;;;;;;;10.47;3.50;;;4.30;99.90;;;;;;5049396;28;20436;-67
2024/03/12 02:57:42;;;;;;;9.40;3.20;;;4.40;99.90;;;;;;5055880;28;20541;-67
2024/03/12 03:00:12;;;;;;;9.50;3.10;;;4.40;99.90;;;;;;5048682;28;20461;-66
2024/03/12 03:02:42;;;;;;;8.53;3.00;;;4.50;99.90;;;;;;5048365;28;20471;-67
2024/03/12 03:05:11;;;;;;;8.03;2.83;;;4.50;99.90;;;;;;5046575;28;20554;-67
2024/03/12 03:07:41;;;;;;;8.60;2.93;;;4.60;99.90;;;;;;5052420;28;20482;-66
2024/03/12 03:10:10;;;;;;;8.53;2.93;;;4.70;99.90;;;;;;5043720;28;20465;-66
2024/03/12 03:12:40;;;;;;;9.40;3.07;;;4.70;99.90;;;;;;5048582;28;20552;-65
2024/03/12 03:15:11;;;;;;;8.50;2.57;;;4.70;99.90;;;;;;5050645;28;20493;-66
2024/03/12 03:17:42;;;;;;;8.00;2.97;;;4.80;99.90;;;;;;5049014;28;20792;-66
2024/03/12 03:20:14;;;;;;;8.77;2.80;;;4.90;99.90;;;;;;5047331;28;20980;-66
2024/03/12 03:22:43;;;;;;;9.73;2.37;;;4.80;99.90;;;;;;5052472;28;20453;-66
2024/03/12 03:25:12;;;;;;;8.67;2.77;;;4.70;99.90;;;;;;5052057;28;20471;-66
2024/03/12 03:27:41;;;;;;;7.63;2.50;;;4.90;99.90;;;;;;5048457;28;20490;-65
2024/03/12 03:30:12;;;;;;;8.27;3.00;;;5.00;99.90;;;;;;5047990;28;20533;-67
2024/03/12 03:32:42;;;;;;;9.37;2.90;;;5.10;99.90;;;;;;5048019;28;20469;-66
2024/03/12 03:35:13;;;;;;;8.10;2.67;;;5.10;99.90;;;;;;5050600;28;20500;-66
2024/03/12 03:37:42;;;;;;;8.43;3.00;;;5.10;99.90;;;;;;5049041;28;20463;-66
2024/03/12 03:40:17;;;;;;;12.10;3.80;;;5.20;99.90;;;;;;5048063;28;20529;-66
2024/03/12 03:42:45;;;;;;;8.87;2.93;;;5.30;99.90;;;;;;5040202;28;20470;-64
2024/03/12 03:45:13;;;;;;;8.50;3.10;;;5.40;99.90;;;;;;5049817;28;20458;-67
2024/03/12 03:47:42;;;;;;;9.70;2.87;;;5.40;99.90;;;;;;5059673;28;20570;-66
2024/03/12 03:50:11;;;;;;;10.20;2.77;;;5.50;99.90;;;;;;5046869;28;20526;-67
2024/03/12 03:52:39;;;;;;;9.93;3.20;;;5.50;99.90;;;;;;5047331;28;20451;-67
2024/03/12 03:55:09;;;;;;;8.63;3.30;;;5.60;99.90;;;;;;5045180;28;21207;-66
2024/03/12 03:57:37;;;;;;;9.23;2.90;;;5.60;99.90;;;;;;5050820;28;20489;-66
2024/03/12 04:00:12;;;;;;;8.87;2.77;;;5.80;99.90;;;;;;5048089;28;20475;-67
2024/03/12 04:02:43;;;;;;;8.30;2.60;;;5.80;99.90;;;;;;5048263;28;21071;-67
2024/03/12 04:05:13;;;;;;;9.63;3.30;;;5.90;99.90;;;;;;5050703;28;20476;-66
2024/03/12 04:07:41;;;;;;;8.00;2.77;;;5.90;99.90;;;;;;5051897;28;20492;-66
2024/03/12 04:10:11;;;;;;;9.03;3.07;;;6.00;99.90;;;;;;5048115;28;20700;-66
2024/03/12 04:12:44;;;;;;;8.77;3.20;;;6.00;99.90;;;;;;5046025;28;20471;-66
2024/03/12 04:15:13;;;;;;;9.00;2.47;;;6.10;99.90;;;;;;5043564;28;20468;-65
2024/03/12 04:17:43;;;;;;;13.33;3.20;;;6.20;99.90;;;;;;5047744;28;20563;-66
2024/03/12 04:20:12;;;;;;;8.77;2.60;;;6.20;99.90;;;;;;5047596;28;20483;-66
2024/03/12 04:22:43;;;;;;;8.60;2.80;;;6.20;99.90;;;;;;5047090;28;20533;-66
2024/03/12 04:25:13;;;;;;;12.17;3.10;;;6.20;99.90;;;;;;5047670;28;20471;-66
2024/03/12 04:27:41;;;;;;;8.93;2.57;;;6.30;99.90;;;;;;5047177;28;20538;-66
2024/03/12 04:30:12;;;;;;;7.80;2.67;;;6.40;99.90;;;;;;5044329;28;20525;-66
2024/03/12 04:32:40;;;;;;;8.47;2.73;;;6.50;99.90;;;;;;5047629;28;20894;-66
2024/03/12 04:35:12;;;;;;;8.40;2.33;;;6.40;99.90;;;;;;5048707;28;20476;-66
2024/03/12 04:37:40;;;;;;;7.70;2.23;;;6.50;99.90;;;;;;5047110;28;20464;-66
2024/03/12 04:40:09;;;;;;;8.80;2.73;;;6.50;99.90;;;;;;5042147;28;20674;-66
2024/03/12 04:42:38;;;;;;;8.90;2.63;;;6.50;99.90;;;;;;5046633;28;21193;-67
2024/03/12 04:45:07;;;;;;;8.50;2.30;;;6.50;99.90;;;;;;5047553;28;20471;-66
2024/03/12 04:47:37;;;;;;;8.97;2.50;;;6.50;99.90;;;;;;5047594;28;20480;-66
2024/03/12 04:50:07;;;;;;;8.80;2.83;;;6.60;99.90;;;;;;5052206;28;20517;-66
2024/03/12 04:52:37;;;;;;;8.90;2.90;;;6.60;99.90;;;;;;5050231;28;20483;-66
2024/03/12 04:55:06;;;;;;;9.47;3.00;;;6.70;99.90;;;;;;5052971;28;20478;-66
2024/03/12 04:57:35;;;;;;;8.33;2.60;;;6.70;99.90;;;;;;5049225;28;21004;-66
2024/03/12 05:00:13;;;;;;;8.60;2.53;;;6.60;99.90;;;;;;5056147;28;20475;-67
2024/03/12 05:02:41;;;;;;;8.00;2.23;;;6.60;99.90;;;;;;5054311;28;20474;-66
2024/03/12 05:05:11;;;;;;;9.10;3.00;;;6.50;99.90;;;;;;5051296;28;20471;-67
2024/03/12 05:07:40;;;;;;;8.13;2.17;;;6.40;99.90;;;;;;5050907;28;20511;-66
2024/03/12 05:10:11;;;;;;;8.37;2.57;;;6.30;99.90;;;;;;5054810;28;20529;-67
2024/03/12 05:12:39;;;;;;;9.30;2.87;;;6.20;99.90;;;;;;5050698;28;20892;-66
2024/03/12 05:15:09;;;;;;;10.40;4.03;;;6.10;99.90;;;;;;5051090;28;20917;-66
2024/03/12 05:17:37;;;;;;;10.63;4.10;;;6.00;99.90;;;;;;5049573;28;20447;-66
2024/03/12 05:20:09;;;;;;;11.17;4.03;;;5.90;99.90;;;;;;5050475;28;20472;-67
2024/03/12 05:22:37;;;;;;;8.80;3.30;;;5.80;99.90;;;;;;5050873;28;20517;-66
2024/03/12 05:25:10;;;;;;;9.33;3.97;;;5.70;99.90;;;;;;5051043;28;20462;-67
2024/03/12 05:27:42;;;;;;;11.10;3.70;;;5.60;99.90;;;;;;5049350;28;20482;-67
2024/03/12 05:30:14;;;;;;;8.37;2.90;;;5.60;99.90;;;;;;5045572;28;20554;-67
2024/03/12 05:32:47;;;;;;;10.07;4.10;;;5.60;99.90;;;;;;5050137;28;20538;-66
2024/03/12 05:35:20;;;;;;;9.67;3.90;;;5.60;99.90;;;;;;5047596;28;20447;-66
2024/03/12 05:38:10;;;;;;;9.13;3.50;;;5.50;99.90;;;;;;5042714;28;20865;-66
2024/03/12 05:40:57;;;;;;;9.77;3.97;;;5.50;99.90;;;;;;5049792;28;20867;-67
2024/03/12 05:49:10;;;;;;;9.73;3.93;;;5.40;99.90;;;;;;5044644;28;21094;-67
2024/03/12 05:51:39;;;;;;;10.37;4.40;;;5.50;99.90;;;;;;5047338;28;20533;-67
2024/03/12 05:54:07;;;;;;;11.00;4.97;;;5.50;99.90;;;;;;5049074;28;20452;-67
2024/03/12 05:56:37;;;;;;;12.37;6.27;;;5.50;99.90;;;;;;5050833;28;20456;-67
2024/03/12 05:59:07;;;;;;;11.50;5.43;;;5.50;99.90;;;;;;5050279;28;20436;-67
2024/03/12 06:01:35;;;;;;;13.67;5.50;;;5.60;99.90;;;;;;5050176;28;20456;-66
2024/03/12 06:04:04;;;;;;;12.97;5.20;;;5.70;99.90;;;;;;5050214;28;20448;-67
2024/03/12 06:06:33;;;;;;;14.50;6.80;;;5.70;99.90;;;;;;5049941;28;20478;-66
2024/03/12 06:09:01;;;;;;;11.70;5.83;;;5.70;99.90;;;;;;5050336;28;20480;-67
2024/03/12 06:11:31;;;;;;;14.83;7.53;;;5.70;99.90;;;;;;5049753;28;20474;-66
2024/03/12 06:14:00;;;;;;;12.43;5.20;;;5.80;99.90;;;;;;5050251;28;20449;-66
2024/03/12 06:16:31;;;;;;;12.40;4.70;;;5.90;99.90;;;;;;5055775;28;20458;-66
2024/03/12 06:18:59;;;;;;;11.23;5.00;;;5.80;99.90;;;;;;5050520;28;20455;-66
2024/03/12 06:21:27;;;;;;;10.80;4.93;;;5.80;99.90;;;;;;5049295;28;20475;-68
2024/03/12 06:23:55;;;;;;;10.13;4.50;;;5.80;99.90;;;;;;5049954;28;20487;-66
2024/03/12 06:26:22;;;;;;;9.40;3.83;;;5.80;99.90;;;;;;5049375;28;20837;-67
2024/03/12 06:28:51;;;;;;;10.17;4.23;;;5.80;99.90;;;;;;5049187;28;20479;-67
2024/03/12 06:31:20;;;;;;;10.60;4.10;;;5.80;99.90;;;;;;5047825;28;20464;-66
2024/03/12 06:33:49;;;;;;;9.23;4.10;;;5.90;99.90;;;;;;5048197;28;20456;-67
2024/03/12 06:36:17;;;;;;;9.43;3.80;;;6.00;99.90;;;;;;5048128;28;20448;-67
2024/03/12 06:38:47;;;;;;;10.43;4.00;;;6.10;99.90;;;;;;5047449;28;20444;-67
2024/03/12 06:41:15;;;;;;;10.80;4.57;;;6.20;99.90;;;;;;5047620;28;20475;-67
2024/03/12 06:43:43;;;;;;;11.00;4.40;;;6.30;99.90;;;;;;5052087;28;20460;-65
2024/03/12 06:46:16;;;;;;;11.57;4.27;;;6.30;99.90;;;;;;5048622;28;20446;-67
2024/03/12 06:48:46;;;;;;;9.57;3.90;;;6.40;99.90;;;;;;5048132;28;20562;-67
2024/03/12 06:51:14;;;;;;;12.10;5.10;;;6.50;99.90;;;;;;5047059;28;20463;-67
2024/03/12 06:53:43;;;;;;;10.73;4.30;;;6.50;99.90;;;;;;5049068;28;20455;-66
2024/03/12 06:56:11;;;;;;;10.57;4.87;;;6.50;99.90;;;;;;5047476;28;20442;-67
2024/03/12 06:58:44;;;;;;;9.07;3.80;;;6.50;99.90;;;;;;5049177;28;20491;-67
2024/03/12 07:01:13;;;;;;;10.30;3.97;;;6.50;99.90;;;;;;5049025;28;20470;-67
2024/03/12 07:03:42;;;;;;;10.10;4.17;;;6.60;99.90;;;;;;5049545;28;20459;-68
2024/03/12 07:06:12;;;;;;;9.53;3.73;;;6.60;99.90;;;;;;5050938;28;20474;-67
2024/03/12 07:08:41;;;;;;;9.67;3.90;;;6.60;99.90;;;;;;5048584;28;20476;-67
2024/03/12 07:11:10;;;;;;;9.53;3.17;;;6.60;99.90;;;;;;5047593;28;20471;-67
2024/03/12 07:13:39;;;;;;;9.23;3.47;;;6.70;99.90;;;;;;5048629;28;20454;-67
2024/03/12 07:16:10;;;;;;;8.50;3.27;;;6.80;99.90;;;;;;5048856;28;20874;-66
2024/03/12 07:18:38;;;;;;;10.60;3.57;;;6.90;99.90;;;;;;5049967;28;20448;-66
2024/03/12 07:21:07;;;;;;;10.10;3.60;;;6.90;99.90;;;;;;5048496;28;20560;-66
2024/03/12 07:23:36;;;;;;;11.30;3.30;;;7.00;99.90;;;;;;5048949;28;20453;-69
2024/03/12 07:26:06;;;;;;;9.60;3.70;;;7.10;99.90;;;;;;5048541;28;20453;-66
2024/03/12 07:28:38;;;;;;;8.90;3.43;;;7.30;99.90;;;;;;5050088;28;20447;-68
2024/03/12 07:31:06;;;;;;;8.73;3.67;;;7.40;99.90;;;;;;5047059;28;20464;-67
2024/03/12 07:33:34;;;;;;;10.30;3.03;;;7.40;99.90;;;;;;5048513;28;20566;-67
2024/03/12 07:36:04;;;;;;;10.63;3.27;;;7.40;99.90;;;;;;5048247;28;20440;-66
2024/03/12 07:38:31;;;;;;;11.10;3.50;;;7.40;99.90;;;;;;5048764;28;20455;-66
2024/03/12 07:41:01;;;;;;;8.30;3.63;;;7.50;99.90;;;;;;5048291;28;21289;-67
2024/03/12 07:43:29;;;;;;;9.00;3.30;;;7.50;99.90;;;;;;5048159;28;20821;-66
2024/03/12 07:45:57;;;;;;;11.03;3.07;;;7.60;99.90;;;;;;5048566;28;20964;-67
2024/03/12 07:48:25;;;;;;;8.30;3.27;;;7.70;99.90;;;;;;5049378;28;20509;-67
2024/03/12 07:50:55;;;;;;;9.10;3.33;;;7.60;99.90;;;;;;5049736;28;20446;-68
2024/03/12 07:53:28;;;;;;;8.87;3.10;;;7.60;99.90;;;;;;5052165;28;20474;-67
2024/03/12 07:56:00;;;;;;;8.63;2.93;;;7.70;99.90;;;;;;5041014;28;20445;-66
2024/03/12 07:58:29;;;;;;;8.60;3.00;;;7.70;99.90;;;;;;5048790;28;20842;-66
2024/03/12 08:00:58;;;;;;;8.77;3.20;;;7.80;99.90;;;;;;5047696;28;20464;-67
2024/03/12 08:03:27;;;;;;;9.97;3.40;;;7.80;99.90;;;;;;5051525;28;20541;-67
2024/03/12 08:05:55;;;;;;;10.10;2.80;;;7.80;99.90;;;;;;5048078;28;20449;-64
2024/03/12 08:08:23;;;;;;;10.67;3.60;;;7.80;99.90;;;;;;5047448;28;21003;-66
2024/03/12 08:10:52;;;;;;;8.40;2.80;;;7.90;99.90;;;;;;5047051;28;20514;-67
2024/03/12 08:13:21;;;;;;;8.67;2.47;;;7.90;99.90;;;;;;5047324;28;20446;-68
2024/03/12 08:15:50;;;;;;;7.30;2.20;;;8.00;99.90;;;;;;5047223;28;20530;-66
2024/03/12 08:18:18;;;;;;;8.07;2.30;;;8.10;99.90;;;;;;5047684;28;20989;-66
2024/03/12 08:20:49;;;;;;;8.87;2.13;;;8.10;99.90;;;;;;5048380;28;20477;-67
2024/03/12 08:23:19;;;;;;;7.50;1.70;;;8.10;99.90;;;;;;5049678;28;20822;-66
2024/03/12 08:25:47;;;;;;;7.90;2.30;;;8.10;99.90;;;;;;5051174;28;20444;-68
2024/03/12 08:28:26;;;;;;;7.63;2.37;;;8.10;99.90;;;;;;5051720;28;20470;-65
2024/03/12 08:30:56;;;;;;;8.00;2.10;;;8.10;99.90;;;;;;5043696;28;20495;-66
2024/03/12 08:33:34;;;;;;;7.80;2.20;;;8.20;99.90;;;;;;5050403;28;20481;-66
2024/03/12 08:36:03;;;;;;;7.60;2.37;;;8.40;99.90;;;;;;5052849;28;20493;-68
2024/03/12 08:38:31;;;;;;;7.90;2.00;;;8.60;99.90;;;;;;5050246;28;20529;-67
2024/03/12 08:40:59;;;;;;;8.20;2.00;;;8.50;99.90;;;;;;5050039;28;20466;-68
2024/03/12 08:43:27;;;;;;;8.30;1.87;;;8.70;99.90;;;;;;5050219;28;21023;-67
2024/03/12 08:45:58;;;;;;;8.20;1.67;;;8.70;99.90;;;;;;5050340;28;20959;-67
2024/03/12 08:48:26;;;;;;;7.30;1.30;;;8.80;99.90;;;;;;5051786;28;20501;-66
2024/03/12 08:50:56;;;;;;;6.70;1.20;;;8.80;99.90;;;;;;5051339;28;20493;-68
2024/03/12 08:53:25;;;;;;;9.60;1.33;;;8.90;99.90;;;;;;5052494;28;20485;-66
2024/03/12 08:55:53;;;;;;;6.90;1.30;;;8.80;99.90;;;;;;5051780;28;20486;-66
2024/03/12 08:58:23;;;;;;;6.70;1.30;;;8.70;99.90;;;;;;5051752;28;21241;-67
2024/03/12 09:00:51;;;;;;;6.70;1.10;;;8.70;99.90;;;;;;5051375;28;20465;-66
2024/03/12 09:03:21;;;;;;;7.03;1.20;;;8.60;99.90;;;;;;5051257;28;20449;-66
2024/03/12 09:05:50;;;;;;;6.63;1.13;;;8.70;99.90;;;;;;5051750;28;20479;-66
2024/03/12 09:08:18;;;;;;;7.63;1.67;;;8.70;99.90;;;;;;5052843;28;20450;-69
2024/03/12 09:10:47;;;;;;;7.63;1.93;;;8.70;99.90;;;;;;5050984;28;21004;-67
2024/03/12 09:13:18;;;;;;;7.97;2.20;;;8.80;99.90;;;;;;5051471;28;20446;-67
2024/03/12 09:15:48;;;;;;;7.07;1.50;;;8.90;99.90;;;;;;5051161;28;20442;-67
2024/03/12 09:18:19;;;;;;;6.90;1.00;;;9.00;99.90;;;;;;5051503;28;20443;-67
2024/03/12 09:20:55;;;;;;;6.53;1.00;;;9.00;99.90;;;;;;5050841;28;21007;-66
2024/03/12 09:23:25;;;;;;;6.60;1.30;;;9.10;99.90;;;;;;5053030;28;20452;-66
2024/03/12 09:25:54;;;;;;;7.30;1.10;;;9.40;99.90;;;;;;5051404;28;20455;-67
2024/03/12 09:28:22;;;;;;;7.23;1.50;;;9.50;99.90;;;;;;5050902;28;20461;-69
2024/03/12 09:30:50;;;;;;;7.10;1.20;;;9.60;99.90;;;;;;5050763;28;20521;-69
2024/03/12 09:33:18;;;;;;;7.03;1.60;;;9.60;99.90;;;;;;5050553;28;20452;-67
2024/03/12 09:35:48;;;;;;;7.37;1.60;;;9.60;99.90;;;;;;5051023;28;20450;-68
2024/03/12 09:38:18;;;;;;;11.77;2.07;;;9.70;99.90;;;;;;5051075;28;20450;-66
2024/03/12 09:40:48;;;;;;;8.00;1.73;;;9.60;99.90;;;;;;5054403;28;20532;-69
2024/03/12 09:43:19;;;;;;;9.50;2.60;;;9.40;99.90;;;;;;5050809;28;20964;-66
2024/03/12 09:45:47;;;;;;;8.33;1.97;;;9.30;99.90;;;;;;5050741;28;20453;-67
2024/03/12 09:48:16;;;;;;;15.90;3.40;;;9.30;99.90;;;;;;5050806;28;20522;-67
2024/03/12 09:50:44;;;;;;;8.90;2.40;;;9.30;99.90;;;;;;5050228;28;20492;-67
2024/03/12 09:53:14;;;;;;;8.70;2.13;;;9.30;99.90;;;;;;5050776;28;20826;-68
2024/03/12 09:55:44;;;;;;;8.03;2.20;;;9.30;99.90;;;;;;5057654;28;20533;-66
2024/03/12 09:58:12;;;;;;;9.20;1.77;;;9.30;99.90;;;;;;5050995;28;20485;-66
2024/03/12 10:00:42;;;;;;;8.33;2.30;;;9.40;99.90;;;;;;5050545;28;20480;-66
2024/03/12 10:03:10;;;;;;;8.57;2.43;;;9.50;99.90;;;;;;5050357;28;20959;-66
2024/03/12 10:05:40;;;;;;;10.10;2.87;;;9.60;99.90;;;;;;5050625;28;20557;-66
2024/03/12 10:08:12;;;;;;;9.80;2.97;;;9.60;99.90;;;;;;5050579;28;20970;-66
2024/03/12 10:10:44;;;;;;;9.10;2.20;;;9.60;99.90;;;;;;5051126;28;20510;-66
2024/03/12 10:13:16;;;;;;;9.90;3.30;;;9.60;99.90;;;;;;5050465;28;20880;-68
2024/03/12 10:15:50;;;;;;;8.60;2.43;;;9.50;99.90;;;;;;5050550;28;20454;-68
2024/03/12 10:18:20;;;;;;;10.50;2.67;;;9.50;99.90;;;;;;5050353;28;20477;-67
2024/03/12 10:20:50;;;;;;;8.87;2.30;;;9.60;99.90;;;;;;5049820;28;21041;-66
2024/03/12 10:23:20;;;;;;;10.60;2.17;;;9.70;99.90;;;;;;5049980;28;20447;-67
2024/03/12 10:25:50;;;;;;;9.50;2.30;;;9.80;99.90;;;;;;5050781;28;20866;-66
2024/03/12 10:28:24;;;;;;;8.50;2.30;;;9.80;99.90;;;;;;5050325;28;21005;-69
2024/03/12 10:30:53;;;;;;;8.60;2.30;;;9.70;99.90;;;;;;5049771;28;20563;-67
2024/03/12 10:33:21;;;;;;;7.93;1.93;;;9.60;99.90;;;;;;5050120;28;20474;-66
2024/03/12 10:35:50;;;;;;;7.70;1.80;;;9.70;99.90;;;;;;5050014;28;20454;-66
2024/03/12 10:38:26;;;;;;;8.50;1.80;;;9.90;99.90;;;;;;5049857;28;20454;-67
2024/03/12 10:40:56;;;;;;;7.73;1.50;;;10.00;99.90;;;;;;5049375;28;20496;-66
2024/03/12 10:43:24;;;;;;;7.80;2.10;;;10.40;99.90;;;;;;5057675;28;20460;-67
2024/03/12 10:45:53;;;;;;;8.37;1.90;;;10.70;99.90;;;;;;5048879;28;20452;-67
2024/03/12 10:48:22;;;;;;;9.40;2.17;;;11.00;99.90;;;;;;5049826;28;20459;-66
2024/03/12 10:50:51;;;;;;;8.80;2.10;;;10.80;99.90;;;;;;5049293;28;20492;-66
2024/03/12 10:53:19;;;;;;;8.97;2.20;;;10.50;99.90;;;;;;5049426;28;20452;-66
2024/03/12 10:55:48;;;;;;;8.10;2.00;;;10.40;99.90;;;;;;5049402;28;20462;-69
2024/03/12 10:58:18;;;;;;;7.63;1.83;;;10.20;99.90;;;;;;5050844;28;20457;-67
2024/03/12 11:00:47;;;;;;;8.63;2.00;;;10.00;99.90;;;;;;5049430;28;20463;-66
2024/03/12 11:03:18;;;;;;;8.27;2.00;;;9.90;99.90;;;;;;5049119;28;20941;-66
2024/03/12 11:05:46;;;;;;;8.43;2.10;;;9.90;99.90;;;;;;5049294;28;20512;-66
2024/03/12 11:08:16;;;;;;;8.37;1.90;;;9.90;99.90;;;;;;5049298;28;20882;-68
2024/03/12 11:10:47;;;;;;;7.67;1.73;;;9.80;99.90;;;;;;5048873;28;20579;-66
2024/03/12 11:13:20;;;;;;;7.43;1.60;;;9.80;99.90;;;;;;5049327;28;20486;-69
2024/03/12 11:15:48;;;;;;;7.53;1.47;;;9.70;99.90;;;;;;5051422;28;20503;-67
2024/03/12 11:18:34;;;;;;;7.10;1.40;;;9.70;99.90;;;;;;5049597;28;20454;-67
2024/03/12 11:21:03;;;;;;;8.10;1.50;;;9.70;99.90;;;;;;5049086;28;20471;-67
2024/03/12 11:23:32;;;;;;;7.10;1.30;;;9.80;99.90;;;;;;5049071;28;20497;-67
2024/03/12 11:26:05;;;;;;;7.40;1.60;;;9.70;99.90;;;;;;5049109;28;20453;-69
2024/03/12 11:28:48;;;;;;;9.30;2.60;;;9.70;99.90;;;;;;5048843;28;20465;-66
2024/03/12 11:31:18;;;;;;;7.53;1.70;;;9.70;99.90;;;;;;5049415;28;20851;-67
2024/03/12 11:33:49;;;;;;;9.97;3.20;;;9.60;99.90;;;;;;5048988;28;20446;-68
2024/03/12 11:36:22;;;;;;;9.77;2.30;;;9.70;99.90;;;;;;5048747;28;20477;-68
2024/03/12 11:38:53;;;;;;;9.87;2.20;;;9.70;99.90;;;;;;5047741;28;20459;-65
2024/03/12 11:41:21;;;;;;;8.97;2.83;;;9.80;99.90;;;;;;5048518;28;20642;-65
2024/03/12 11:43:50;;;;;;;9.93;2.93;;;9.80;99.90;;;;;;5048487;28;20478;-68
2024/03/12 11:46:20;;;;;;;8.00;2.40;;;9.70;99.90;;;;;;5049665;28;20448;-67
2024/03/12 11:48:51;;;;;;;8.73;2.20;;;9.70;99.90;;;;;;5048721;28;20532;-66
2024/03/12 11:51:20;;;;;;;7.60;2.00;;;9.70;99.90;;;;;;5048075;28;20497;-67
2024/03/12 11:53:49;;;;;;;8.70;2.40;;;9.70;99.90;;;;;;5048506;28;20454;-67
2024/03/12 11:56:19;;;;;;;20.30;5.77;;;9.60;99.90;;;;;;5048198;28;20449;-67
2024/03/12 11:58:53;;;;;;;9.47;2.80;;;9.50;99.90;;;;;;5048863;28;20455;-66
2024/03/12 12:01:31;;;;;;;9.87;2.43;;;9.50;99.90;;;;;;5049083;28;20503;-67
2024/03/12 12:04:03;;;;;;;8.20;2.50;;;9.60;99.90;;;;;;5040348;28;20868;-66
2024/03/12 12:06:32;;;;;;;7.73;1.57;;;9.70;99.90;;;;;;5048343;28;21050;-66
2024/03/12 12:09:02;;;;;;;10.00;2.83;;;9.70;99.90;;;;;;5048293;28;20450;-69
2024/03/12 12:11:31;;;;;;;8.37;1.57;;;9.70;99.90;;;;;;5048059;28;20494;-67
2024/03/12 12:14:00;;;;;;;8.07;1.87;;;9.80;99.90;;;;;;5048851;28;20441;-67
2024/03/12 12:16:32;;;;;;;9.10;2.70;;;9.90;99.90;;;;;;5048460;28;20912;-66
2024/03/12 12:19:05;;;;;;;10.43;3.80;;;10.00;99.90;;;;;;5049126;28;20496;-66
2024/03/12 12:21:34;;;;;;;11.43;3.80;;;9.90;99.90;;;;;;5047766;28;20498;-66
2024/03/12 12:24:02;;;;;;;13.50;5.20;;;10.10;99.90;;;;;;5048268;28;20488;-67
2024/03/12 12:26:33;;;;;;;14.00;6.97;;;10.20;99.90;;;;;;5047793;28;20459;-67
2024/03/12 12:29:04;;;;;;;25.40;9.97;;;10.10;99.90;;;;;;5047961;28;20492;-68
2024/03/12 12:31:36;;;;;;;19.20;11.07;;;10.00;99.90;;;;;;5047271;28;20594;-68
2024/03/12 12:34:06;;;;;;;18.57;10.47;;;10.10;99.90;;;;;;5049401;28;20450;-65
2024/03/12 12:36:38;;;;;;;20.27;10.60;;;10.10;99.90;;;;;;5046973;28;20446;-69
2024/03/12 12:39:09;;;;;;;21.30;9.87;;;10.20;99.90;;;;;;5047175;28;20441;-69
2024/03/12 12:41:42;;;;;;;20.07;9.30;;;10.20;99.90;;;;;;5046498;28;20983;-67
2024/03/12 12:44:15;;;;;;;17.37;8.60;;;10.30;99.90;;;;;;5047051;28;20820;-66
2024/03/12 12:46:46;;;;;;;16.70;7.70;;;10.40;99.90;;;;;;5047177;28;20892;-69
2024/03/12 12:49:15;;;;;;;18.10;7.80;;;10.40;99.90;;;;;;5047665;28;20446;-69
2024/03/12 12:51:45;;;;;;;18.60;8.07;;;10.40;99.90;;;;;;5046268;28;20490;-66
2024/03/12 12:54:17;;;;;;;18.87;10.20;;;10.30;99.90;;;;;;5046916;28;21221;-68
2024/03/12 12:56:49;;;;;;;19.30;8.70;;;10.10;99.90;;;;;;5046816;28;20450;-66
2024/03/12 12:59:21;;;;;;;22.07;10.10;;;9.90;99.90;;;;;;5046715;28;20454;-69
2024/03/12 13:01:49;;;;;;;22.00;8.40;;;9.80;99.90;;;;;;5046267;28;20443;-70
2024/03/12 13:04:22;;;;;;;19.40;9.10;;;9.80;99.90;;;;;;5046895;28;20985;-67
2024/03/12 13:06:53;;;;;;;19.00;9.60;;;9.80;99.90;;;;;;5047731;28;20455;-70
2024/03/12 13:09:29;;;;;;;20.70;9.50;;;9.70;99.90;;;;;;5048727;28;20444;-65
2024/03/12 13:11:59;;;;;;;19.77;7.63;;;9.80;99.90;;;;;;5049896;28;20549;-67